sensor_id;sensor_type;location;lat;lon;timestamp;pressure;altitude;pressure_sealevel;temperature;humidity
56402;BME280;42299;35.160;26.100;2024-03-08T00:00:58;101282.28;;;12.04;100.00
56402;BME280;42299;35.160;26.100;2024-03-08T00:06:21;101286.38;;;11.85;100.00
56402;BME280;42299;35.160;26.100;2024-03-08T00:11:43;101278.13;;;11.71;100.00
56402;BME280;42299;35.160;26.100;2024-03-08T00:17:07;101282.72;;;11.78;100.00
56402;BME280;42299;35.160;26.100;2024-03-08T00:22:31;101277.47;;;11.80;100.00
56402;BME280;42299;35.160;26.100;2024-03-08T00:27:55;101265.97;;;11.79;100.00
56402;BME280;42299;35.160;26.100;2024-03-08T00:33:24;101257.91;;;11.73;100.00
56402;BME280;42299;35.160;26.100;2024-03-08T00:38:50;101246.88;;;11.50;100.00
56402;BME280;42299;35.160;26.100;2024-03-08T00:44:16;101236.78;;;11.31;100.00
56402;BME280;42299;35.160;26.100;2024-03-08T00:49:43;101235.53;;;11.12;100.00
56402;BME280;42299;35.160;26.100;2024-03-08T00:55:07;101237.06;;;11.01;100.00
56402;BME280;42299;35.160;26.100;2024-03-08T01:00:31;101224.31;;;10.82;100.00
56402;BME280;42299;35.160;26.100;2024-03-08T01:05:56;101224.28;;;10.81;100.00
56402;BME280;42299;35.160;26.100;2024-03-08T01:11:22;101205.50;;;11.07;100.00
56402;BME280;42299;35.160;26.100;2024-03-08T01:16:45;101210.94;;;11.16;100.00
56402;BME280;42299;35.160;26.100;2024-03-08T01:22:10;101219.75;;;11.17;100.00
56402;BME280;42299;35.160;26.100;2024-03-08T01:27:33;101220.19;;;11.38;100.00
56402;BME280;42299;35.160;26.100;2024-03-08T01:32:56;101235.63;;;11.62;100.00
56402;BME280;42299;35.160;26.100;2024-03-08T01:38:20;101223.28;;;11.61;100.00
56402;BME280;42299;35.160;26.100;2024-03-08T01:43:43;101215.47;;;11.67;100.00
56402;BME280;42299;35.160;26.100;2024-03-08T01:49:06;101220.75;;;11.67;100.00
56402;BME280;42299;35.160;26.100;2024-03-08T01:54:30;101231.88;;;11.49;100.00
56402;BME280;42299;35.160;26.100;2024-03-08T01:59:53;101220.19;;;11.83;100.00
56402;BME280;42299;35.160;26.100;2024-03-08T02:05:17;101224.84;;;11.96;100.00
56402;BME280;42299;35.160;26.100;2024-03-08T02:10:44;101224.19;;;12.10;100.00
56402;BME280;42299;35.160;26.100;2024-03-08T02:16:07;101220.13;;;12.31;100.00
56402;BME280;42299;35.160;26.100;2024-03-08T02:21:31;101233.50;;;12.39;100.00
56402;BME280;42299;35.160;26.100;2024-03-08T02:26:55;101239.53;;;12.30;100.00
56402;BME280;42299;35.160;26.100;2024-03-08T02:32:18;101235.94;;;12.28;100.00
56402;BME280;42299;35.160;26.100;2024-03-08T02:37:45;101235.84;;;12.22;100.00
56402;BME280;42299;35.160;26.100;2024-03-08T02:43:10;101239.81;;;11.94;100.00
56402;BME280;42299;35.160;26.100;2024-03-08T02:48:35;101243.25;;;11.90;100.00
56402;BME280;42299;35.160;26.100;2024-03-08T02:54:01;101240.09;;;11.65;100.00
56402;BME280;42299;35.160;26.100;2024-03-08T02:59:25;101242.13;;;11.33;100.00
56402;BME280;42299;35.160;26.100;2024-03-08T03:04:48;101247.63;;;11.03;100.00
56402;BME280;42299;35.160;26.100;2024-03-08T03:10:12;101248.03;;;10.81;100.00
56402;BME280;42299;35.160;26.100;2024-03-08T03:15:37;101243.22;;;10.61;100.00
56402;BME280;42299;35.160;26.100;2024-03-08T03:21:03;101258.78;;;10.51;100.00
56402;BME280;42299;35.160;26.100;2024-03-08T03:26:31;101258.53;;;10.40;100.00
56402;BME280;42299;35.160;26.100;2024-03-08T03:31:55;101257.03;;;10.50;100.00
56402;BME280;42299;35.160;26.100;2024-03-08T03:37:17;101257.16;;;10.56;100.00
56402;BME280;42299;35.160;26.100;2024-03-08T03:42:42;101252.78;;;10.58;100.00
56402;BME280;42299;35.160;26.100;2024-03-08T03:48:07;101257.13;;;10.93;100.00
56402;BME280;42299;35.160;26.100;2024-03-08T03:53:30;101254.72;;;11.04;100.00
56402;BME280;42299;35.160;26.100;2024-03-08T03:58:54;101257.59;;;10.74;100.00
56402;BME280;42299;35.160;26.100;2024-03-08T04:04:17;101249.16;;;10.53;100.00
56402;BME280;42299;35.160;26.100;2024-03-08T04:09:39;101258.28;;;10.31;100.00
56402;BME280;42299;35.160;26.100;2024-03-08T04:15:05;101260.84;;;10.26;100.00
56402;BME280;42299;35.160;26.100;2024-03-08T04:20:29;101254.66;;;10.26;100.00
56402;BME280;42299;35.160;26.100;2024-03-08T04:25:51;101259.03;;;10.25;100.00
56402;BME280;42299;35.160;26.100;2024-03-08T04:31:15;101266.06;;;10.23;100.00
56402;BME280;42299;35.160;26.100;2024-03-08T04:36:38;101268.69;;;10.25;100.00
56402;BME280;42299;35.160;26.100;2024-03-08T04:42:02;101274.63;;;10.16;100.00
56402;BME280;42299;35.160;26.100;2024-03-08T04:47:29;101262.25;;;10.14;100.00
56402;BME280;42299;35.160;26.100;2024-03-08T04:52:51;101264.25;;;10.22;100.00
56402;BME280;42299;35.160;26.100;2024-03-08T04:58:18;101263.28;;;10.19;100.00
56402;BME280;42299;35.160;26.100;2024-03-08T05:03:43;101258.34;;;10.32;100.00
56402;BME280;42299;35.160;26.100;2024-03-08T05:09:06;101264.28;;;10.60;100.00
56402;BME280;42299;35.160;26.100;2024-03-08T05:14:34;101263.63;;;13.07;100.00
56402;BME280;42299;35.160;26.100;2024-03-08T05:20:01;101250.47;;;14.96;100.00
56402;BME280;42299;35.160;26.100;2024-03-08T05:25:25;101244.63;;;16.52;100.00
56402;BME280;42299;35.160;26.100;2024-03-08T05:30:48;101245.34;;;17.29;100.00
56402;BME280;42299;35.160;26.100;2024-03-08T05:36:11;101242.59;;;18.72;100.00
56402;BME280;42299;35.160;26.100;2024-03-08T05:41:35;101247.06;;;19.49;97.11
56402;BME280;42299;35.160;26.100;2024-03-08T05:46:58;101237.88;;;19.70;89.91
56402;BME280;42299;35.160;26.100;2024-03-08T05:52:22;101235.09;;;19.78;81.88
56402;BME280;42299;35.160;26.100;2024-03-08T05:57:45;101228.81;;;20.36;72.26
56402;BME280;42299;35.160;26.100;2024-03-08T06:03:10;101244.94;;;20.85;66.45
56402;BME280;42299;35.160;26.100;2024-03-08T06:08:34;101244.69;;;22.91;55.93
56402;BME280;42299;35.160;26.100;2024-03-08T06:13:57;101258.84;;;24.19;48.77
56402;BME280;42299;35.160;26.100;2024-03-08T06:19:20;101266.28;;;25.65;46.22
56402;BME280;42299;35.160;26.100;2024-03-08T06:24:45;101268.19;;;26.93;42.15
56402;BME280;42299;35.160;26.100;2024-03-08T06:30:09;101270.94;;;27.53;40.38
56402;BME280;42299;35.160;26.100;2024-03-08T06:35:31;101264.44;;;27.94;37.37
56402;BME280;42299;35.160;26.100;2024-03-08T06:40:56;101275.53;;;28.44;36.13
56402;BME280;42299;35.160;26.100;2024-03-08T06:46:19;101281.78;;;29.34;33.09
56402;BME280;42299;35.160;26.100;2024-03-08T06:51:42;101292.47;;;29.70;31.60
56402;BME280;42299;35.160;26.100;2024-03-08T06:57:09;101278.44;;;29.78;30.82
56402;BME280;42299;35.160;26.100;2024-03-08T07:02:32;101301.00;;;30.13;29.77
56402;BME280;42299;35.160;26.100;2024-03-08T07:07:58;101297.19;;;30.92;29.37
56402;BME280;42299;35.160;26.100;2024-03-08T07:13:22;101304.34;;;30.79;28.70
56402;BME280;42299;35.160;26.100;2024-03-08T07:18:48;101300.00;;;30.29;28.18
56402;BME280;42299;35.160;26.100;2024-03-08T07:24:13;101304.69;;;30.88;27.60
56402;BME280;42299;35.160;26.100;2024-03-08T07:29:56;101300.94;;;32.06;26.45
56402;BME280;42299;35.160;26.100;2024-03-08T07:35:22;101302.69;;;32.21;25.69
56402;BME280;42299;35.160;26.100;2024-03-08T07:40:50;101301.56;;;32.92;24.82
56402;BME280;42299;35.160;26.100;2024-03-08T07:46:16;101304.28;;;32.79;24.67
56402;BME280;42299;35.160;26.100;2024-03-08T07:51:39;101286.09;;;33.30;23.34
56402;BME280;42299;35.160;26.100;2024-03-08T07:57:02;101297.16;;;33.67;23.11
56402;BME280;42299;35.160;26.100;2024-03-08T08:02:26;101294.00;;;34.58;22.52
56402;BME280;42299;35.160;26.100;2024-03-08T08:07:49;101299.91;;;35.00;22.29
56402;BME280;42299;35.160;26.100;2024-03-08T08:13:15;101303.22;;;35.84;21.82
56402;BME280;42299;35.160;26.100;2024-03-08T08:18:40;101295.25;;;36.69;21.14
56402;BME280;42299;35.160;26.100;2024-03-08T08:24:03;101298.44;;;37.06;20.59
56402;BME280;42299;35.160;26.100;2024-03-08T08:29:27;101299.56;;;36.40;19.89
56402;BME280;42299;35.160;26.100;2024-03-08T08:34:51;101298.06;;;36.36;20.20
56402;BME280;42299;35.160;26.100;2024-03-08T08:40:13;101294.22;;;36.70;20.57
56402;BME280;42299;35.160;26.100;2024-03-08T08:45:38;101296.34;;;36.98;19.83
56402;BME280;42299;35.160;26.100;2024-03-08T08:51:02;101294.59;;;35.55;20.43
56402;BME280;42299;35.160;26.100;2024-03-08T08:56:27;101294.72;;;36.10;20.46
56402;BME280;42299;35.160;26.100;2024-03-08T09:01:50;101298.59;;;36.07;20.08
56402;BME280;42299;35.160;26.100;2024-03-08T09:07:16;101291.44;;;35.03;20.64
56402;BME280;42299;35.160;26.100;2024-03-08T09:12:39;101297.56;;;35.30;20.70
56402;BME280;42299;35.160;26.100;2024-03-08T09:18:02;101295.22;;;36.04;20.39
56402;BME280;42299;35.160;26.100;2024-03-08T09:23:28;101299.84;;;36.25;20.00
56402;BME280;42299;35.160;26.100;2024-03-08T09:28:51;101292.72;;;35.10;20.88
56402;BME280;42299;35.160;26.100;2024-03-08T09:34:15;101294.69;;;35.54;20.47
56402;BME280;42299;35.160;26.100;2024-03-08T09:39:40;101294.69;;;35.65;20.48
56402;BME280;42299;35.160;26.100;2024-03-08T09:45:05;101304.47;;;36.25;20.06
56402;BME280;42299;35.160;26.100;2024-03-08T09:50:31;101292.22;;;36.72;19.55
56402;BME280;42299;35.160;26.100;2024-03-08T09:55:56;101290.09;;;35.99;20.29
56402;BME280;42299;35.160;26.100;2024-03-08T10:01:20;101289.72;;;35.13;20.67
56402;BME280;42299;35.160;26.100;2024-03-08T10:06:43;101283.84;;;30.87;24.16
56402;BME280;42299;35.160;26.100;2024-03-08T10:12:10;101285.44;;;31.36;23.49
56402;BME280;42299;35.160;26.100;2024-03-08T10:17:34;101280.72;;;32.76;22.32
56402;BME280;42299;35.160;26.100;2024-03-08T10:22:57;101278.59;;;34.45;20.63
56402;BME280;42299;35.160;26.100;2024-03-08T10:28:22;101273.59;;;33.89;21.54
56402;BME280;42299;35.160;26.100;2024-03-08T10:33:45;101271.00;;;34.12;21.77
56402;BME280;42299;35.160;26.100;2024-03-08T10:39:17;101265.59;;;33.86;22.49
56402;BME280;42299;35.160;26.100;2024-03-08T10:44:49;101272.28;;;33.57;23.75
56402;BME280;42299;35.160;26.100;2024-03-08T10:50:18;101275.56;;;33.49;23.55
56402;BME280;42299;35.160;26.100;2024-03-08T10:55:42;101268.69;;;31.56;24.55
56402;BME280;42299;35.160;26.100;2024-03-08T11:01:07;101273.28;;;30.36;27.08
56402;BME280;42299;35.160;26.100;2024-03-08T11:06:41;101264.81;;;30.72;27.81
56402;BME280;42299;35.160;26.100;2024-03-08T11:12:20;101256.84;;;29.90;29.53
56402;BME280;42299;35.160;26.100;2024-03-08T11:17:48;101250.47;;;29.25;31.03
56402;BME280;42299;35.160;26.100;2024-03-08T11:23:11;101267.91;;;28.70;31.52
56402;BME280;42299;35.160;26.100;2024-03-08T11:28:33;101255.28;;;26.78;34.12
56402;BME280;42299;35.160;26.100;2024-03-08T11:33:57;101247.91;;;26.18;35.76
56402;BME280;42299;35.160;26.100;2024-03-08T11:39:20;101257.13;;;25.44;36.96
56402;BME280;42299;35.160;26.100;2024-03-08T11:44:43;101258.94;;;24.95;38.05
56402;BME280;42299;35.160;26.100;2024-03-08T11:50:11;101249.63;;;24.53;38.68
56402;BME280;42299;35.160;26.100;2024-03-08T11:55:33;101252.31;;;24.53;38.53
56402;BME280;42299;35.160;26.100;2024-03-08T12:01:03;101246.72;;;24.84;38.36
56402;BME280;42299;35.160;26.100;2024-03-08T12:06:36;101246.78;;;24.56;38.81
56402;BME280;42299;35.160;26.100;2024-03-08T12:12:00;101250.69;;;25.00;38.80
56402;BME280;42299;35.160;26.100;2024-03-08T12:17:24;101251.84;;;24.93;38.39
56402;BME280;42299;35.160;26.100;2024-03-08T12:22:48;101248.88;;;24.74;39.44
56402;BME280;42299;35.160;26.100;2024-03-08T12:28:13;101245.38;;;24.97;39.09
56402;BME280;42299;35.160;26.100;2024-03-08T12:33:36;101242.59;;;25.23;38.90
56402;BME280;42299;35.160;26.100;2024-03-08T12:39:01;101247.88;;;24.77;39.12
56402;BME280;42299;35.160;26.100;2024-03-08T12:44:24;101257.09;;;24.17;40.40
56402;BME280;42299;35.160;26.100;2024-03-08T12:49:49;101254.44;;;23.58;40.74
56402;BME280;42299;35.160;26.100;2024-03-08T12:55:13;101265.75;;;23.71;40.88
56402;BME280;42299;35.160;26.100;2024-03-08T13:00:37;101257.47;;;23.17;41.85
56402;BME280;42299;35.160;26.100;2024-03-08T13:06:05;101259.97;;;23.23;41.96
56402;BME280;42299;35.160;26.100;2024-03-08T13:11:37;101264.59;;;23.18;42.03
56402;BME280;42299;35.160;26.100;2024-03-08T13:17:02;101259.19;;;23.18;42.66
56402;BME280;42299;35.160;26.100;2024-03-08T13:22:25;101259.13;;;23.52;42.06
56402;BME280;42299;35.160;26.100;2024-03-08T13:27:50;101259.88;;;23.57;42.09
56402;BME280;42299;35.160;26.100;2024-03-08T13:33:15;101252.13;;;23.75;42.72
56402;BME280;42299;35.160;26.100;2024-03-08T13:38:38;101262.09;;;24.01;41.42
56402;BME280;42299;35.160;26.100;2024-03-08T13:44:05;101256.69;;;23.42;42.25
56402;BME280;42299;35.160;26.100;2024-03-08T13:49:27;101257.28;;;23.23;42.76
56402;BME280;42299;35.160;26.100;2024-03-08T13:54:50;101257.00;;;23.01;43.28
56402;BME280;42299;35.160;26.100;2024-03-08T14:00:15;101253.91;;;22.47;44.29
56402;BME280;42299;35.160;26.100;2024-03-08T14:05:39;101255.00;;;22.04;45.06
56402;BME280;42299;35.160;26.100;2024-03-08T14:11:02;101254.28;;;21.96;45.70
56402;BME280;42299;35.160;26.100;2024-03-08T14:16:34;101254.72;;;21.75;47.02
56402;BME280;42299;35.160;26.100;2024-03-08T14:21:58;101256.94;;;21.13;48.71
56402;BME280;42299;35.160;26.100;2024-03-08T14:27:20;101266.34;;;20.88;49.39
56402;BME280;42299;35.160;26.100;2024-03-08T14:32:45;101267.56;;;20.72;49.66
56402;BME280;42299;35.160;26.100;2024-03-08T14:38:07;101265.94;;;20.61;51.55
56402;BME280;42299;35.160;26.100;2024-03-08T14:43:31;101263.94;;;20.19;54.55
56402;BME280;42299;35.160;26.100;2024-03-08T14:48:55;101267.94;;;19.90;58.18
56402;BME280;42299;35.160;26.100;2024-03-08T14:54:19;101276.44;;;19.57;60.65
56402;BME280;42299;35.160;26.100;2024-03-08T14:59:43;101272.31;;;19.29;62.98
56402;BME280;42299;35.160;26.100;2024-03-08T15:05:08;101275.34;;;18.98;66.58
56402;BME280;42299;35.160;26.100;2024-03-08T15:10:32;101285.28;;;18.87;68.07
56402;BME280;42299;35.160;26.100;2024-03-08T15:15:54;101283.75;;;18.59;69.75
56402;BME280;42299;35.160;26.100;2024-03-08T15:21:18;101295.56;;;18.29;73.45
56402;BME280;42299;35.160;26.100;2024-03-08T15:26:42;101293.91;;;18.11;75.58
56402;BME280;42299;35.160;26.100;2024-03-08T15:32:05;101293.97;;;18.04;79.64
56402;BME280;42299;35.160;26.100;2024-03-08T15:37:32;101287.72;;;18.00;80.60
56402;BME280;42299;35.160;26.100;2024-03-08T15:42:57;101310.13;;;17.73;83.46
56402;BME280;42299;35.160;26.100;2024-03-08T15:48:20;101314.69;;;17.50;87.12
56402;BME280;42299;35.160;26.100;2024-03-08T15:53:44;101310.28;;;17.31;88.84
56402;BME280;42299;35.160;26.100;2024-03-08T15:59:13;101319.25;;;17.13;90.10
56402;BME280;42299;35.160;26.100;2024-03-08T16:04:36;101321.03;;;17.09;90.02
56402;BME280;42299;35.160;26.100;2024-03-08T16:10:00;101330.84;;;16.74;92.52
56402;BME280;42299;35.160;26.100;2024-03-08T16:15:23;101334.38;;;16.46;96.08
56402;BME280;42299;35.160;26.100;2024-03-08T16:20:47;101339.66;;;16.24;98.62
56402;BME280;42299;35.160;26.100;2024-03-08T16:26:11;101344.94;;;16.00;99.95
56402;BME280;42299;35.160;26.100;2024-03-08T16:31:34;101347.56;;;15.89;97.19
56402;BME280;42299;35.160;26.100;2024-03-08T16:37:06;101346.66;;;15.83;95.84
56402;BME280;42299;35.160;26.100;2024-03-08T16:42:53;101335.94;;;15.60;96.63
56402;BME280;42299;35.160;26.100;2024-03-08T16:48:17;101345.53;;;15.37;99.81
56402;BME280;42299;35.160;26.100;2024-03-08T16:53:39;101343.69;;;15.21;100.00
56402;BME280;42299;35.160;26.100;2024-03-08T16:59:05;101344.53;;;15.16;100.00
56402;BME280;42299;35.160;26.100;2024-03-08T17:04:31;101341.94;;;15.26;100.00
56402;BME280;42299;35.160;26.100;2024-03-08T17:09:53;101345.56;;;15.40;100.00
56402;BME280;42299;35.160;26.100;2024-03-08T17:15:21;101353.72;;;15.72;100.00
56402;BME280;42299;35.160;26.100;2024-03-08T17:20:43;101357.25;;;15.75;100.00
56402;BME280;42299;35.160;26.100;2024-03-08T17:26:06;101364.22;;;15.47;100.00
56402;BME280;42299;35.160;26.100;2024-03-08T17:31:30;101378.31;;;15.33;100.00
56402;BME280;42299;35.160;26.100;2024-03-08T17:36:53;101377.59;;;15.57;100.00
56402;BME280;42299;35.160;26.100;2024-03-08T17:42:18;101385.56;;;15.53;100.00
56402;BME280;42299;35.160;26.100;2024-03-08T17:47:42;101395.03;;;15.09;100.00
56402;BME280;42299;35.160;26.100;2024-03-08T17:53:06;101393.63;;;14.51;100.00
56402;BME280;42299;35.160;26.100;2024-03-08T17:58:31;101405.72;;;14.23;100.00
56402;BME280;42299;35.160;26.100;2024-03-08T18:03:56;101404.88;;;14.28;100.00
56402;BME280;42299;35.160;26.100;2024-03-08T18:09:21;101400.41;;;14.23;100.00
56402;BME280;42299;35.160;26.100;2024-03-08T18:14:45;101407.47;;;14.22;100.00
56402;BME280;42299;35.160;26.100;2024-03-08T18:20:11;101406.66;;;14.31;100.00
56402;BME280;42299;35.160;26.100;2024-03-08T18:25:35;101406.66;;;14.29;100.00
56402;BME280;42299;35.160;26.100;2024-03-08T18:30:59;101403.06;;;14.26;100.00
56402;BME280;42299;35.160;26.100;2024-03-08T18:36:23;101406.38;;;14.05;100.00
56402;BME280;42299;35.160;26.100;2024-03-08T18:41:45;101407.16;;;13.95;100.00
56402;BME280;42299;35.160;26.100;2024-03-08T18:47:08;101414.25;;;13.96;100.00
56402;BME280;42299;35.160;26.100;2024-03-08T18:52:32;101411.50;;;13.90;100.00
56402;BME280;42299;35.160;26.100;2024-03-08T18:57:55;101419.31;;;13.79;100.00
56402;BME280;42299;35.160;26.100;2024-03-08T19:03:21;101432.56;;;13.76;100.00
56402;BME280;42299;35.160;26.100;2024-03-08T19:08:45;101415.50;;;13.57;100.00
56402;BME280;42299;35.160;26.100;2024-03-08T19:14:09;101432.94;;;13.39;100.00
56402;BME280;42299;35.160;26.100;2024-03-08T19:19:31;101430.97;;;13.27;100.00
56402;BME280;42299;35.160;26.100;2024-03-08T19:24:57;101430.19;;;13.34;100.00
56402;BME280;42299;35.160;26.100;2024-03-08T19:30:20;101427.44;;;13.28;100.00
56402;BME280;42299;35.160;26.100;2024-03-08T19:35:47;101432.56;;;13.16;100.00
56402;BME280;42299;35.160;26.100;2024-03-08T19:41:12;101434.28;;;13.14;100.00
56402;BME280;42299;35.160;26.100;2024-03-08T19:46:34;101438.56;;;13.07;100.00
56402;BME280;42299;35.160;26.100;2024-03-08T19:52:01;101440.19;;;12.98;100.00
56402;BME280;42299;35.160;26.100;2024-03-08T19:57:26;101439.41;;;13.03;100.00
56402;BME280;42299;35.160;26.100;2024-03-08T20:02:50;101447.97;;;12.89;100.00
56402;BME280;42299;35.160;26.100;2024-03-08T20:08:15;101446.88;;;12.76;100.00
56402;BME280;42299;35.160;26.100;2024-03-08T20:13:41;101450.19;;;12.64;100.00
56402;BME280;42299;35.160;26.100;2024-03-08T20:19:06;101456.16;;;12.54;100.00
56402;BME280;42299;35.160;26.100;2024-03-08T20:24:30;101459.81;;;12.61;100.00
56402;BME280;42299;35.160;26.100;2024-03-08T20:29:54;101459.69;;;12.52;100.00
56402;BME280;42299;35.160;26.100;2024-03-08T20:35:18;101458.78;;;12.51;100.00
56402;BME280;42299;35.160;26.100;2024-03-08T20:40:41;101468.25;;;12.38;100.00
56402;BME280;42299;35.160;26.100;2024-03-08T20:46:09;101471.06;;;12.46;100.00
56402;BME280;42299;35.160;26.100;2024-03-08T20:51:32;101474.03;;;12.64;100.00
56402;BME280;42299;35.160;26.100;2024-03-08T20:56:56;101467.47;;;12.94;100.00
56402;BME280;42299;35.160;26.100;2024-03-08T21:02:20;101463.28;;;13.05;100.00
56402;BME280;42299;35.160;26.100;2024-03-08T21:07:43;101461.56;;;13.08;100.00
56402;BME280;42299;35.160;26.100;2024-03-08T21:13:07;101457.16;;;13.09;100.00
56402;BME280;42299;35.160;26.100;2024-03-08T21:18:33;101455.88;;;12.87;100.00
56402;BME280;42299;35.160;26.100;2024-03-08T21:23:57;101462.25;;;12.49;100.00
56402;BME280;42299;35.160;26.100;2024-03-08T21:29:20;101462.75;;;12.29;100.00
56402;BME280;42299;35.160;26.100;2024-03-08T21:34:44;101466.63;;;12.03;100.00
56402;BME280;42299;35.160;26.100;2024-03-08T21:40:07;101461.63;;;11.76;100.00
56402;BME280;42299;35.160;26.100;2024-03-08T21:45:32;101458.09;;;11.76;100.00
56402;BME280;42299;35.160;26.100;2024-03-08T21:50:59;101456.38;;;11.78;100.00
56402;BME280;42299;35.160;26.100;2024-03-08T21:56:21;101472.94;;;11.71;100.00
56402;BME280;42299;35.160;26.100;2024-03-08T22:01:44;101477.59;;;11.43;100.00
56402;BME280;42299;35.160;26.100;2024-03-08T22:07:10;101477.13;;;11.22;100.00
56402;BME280;42299;35.160;26.100;2024-03-08T22:12:33;101472.31;;;11.43;100.00
56402;BME280;42299;35.160;26.100;2024-03-08T22:17:56;101472.59;;;11.54;100.00
56402;BME280;42299;35.160;26.100;2024-03-08T22:23:20;101479.34;;;11.41;100.00
56402;BME280;42299;35.160;26.100;2024-03-08T22:28:43;101475.19;;;11.52;100.00
56402;BME280;42299;35.160;26.100;2024-03-08T22:34:07;101476.88;;;11.13;100.00
56402;BME280;42299;35.160;26.100;2024-03-08T22:39:33;101482.59;;;10.95;100.00
56402;BME280;42299;35.160;26.100;2024-03-08T22:44:55;101464.66;;;10.82;100.00
56402;BME280;42299;35.160;26.100;2024-03-08T22:50:19;101471.78;;;10.86;100.00
56402;BME280;42299;35.160;26.100;2024-03-08T22:55:46;101472.38;;;10.74;100.00
56402;BME280;42299;35.160;26.100;2024-03-08T23:01:10;101457.53;;;10.79;100.00
56402;BME280;42299;35.160;26.100;2024-03-08T23:06:36;101472.25;;;11.04;100.00
56402;BME280;42299;35.160;26.100;2024-03-08T23:12:00;101467.81;;;11.02;100.00
56402;BME280;42299;35.160;26.100;2024-03-08T23:17:23;101451.06;;;11.03;100.00
56402;BME280;42299;35.160;26.100;2024-03-08T23:22:47;101451.19;;;11.07;100.00
56402;BME280;42299;35.160;26.100;2024-03-08T23:28:12;101447.94;;;11.19;100.00
56402;BME280;42299;35.160;26.100;2024-03-08T23:33:34;101447.84;;;11.14;100.00
56402;BME280;42299;35.160;26.100;2024-03-08T23:38:57;101448.13;;;11.27;100.00
56402;BME280;42299;35.160;26.100;2024-03-08T23:44:22;101445.19;;;11.52;100.00
56402;BME280;42299;35.160;26.100;2024-03-08T23:49:44;101438.22;;;11.93;100.00
56402;BME280;42299;35.160;26.100;2024-03-08T23:55:08;101442.78;;;12.00;100.00
